Aviation Digital Data Service (ADDS)

Output produced by METARs form (0638 UTC 27 March 2017)
found at http://www.aviationweather.gov/adds/metars/
 
VTBD 270630Z 34005KT 260V020 8000 FEW020 SCT040 BKN080 27/25 Q1015 NOSIG
TAF VTBD 270500Z 2706/2812 34005KT 9000 FEW020 SCT100 
     BECMG 2708/2710 03005KT 
     BECMG 2716/2718 34005KT FEW020 
     BECMG 2801/2803 07010KT 9999
       
VTUO 270600Z 36005KT 310V070 7000 SCT020 BKN100 25/20 Q1018 A3006 INFO G RWY 04
TAF VTUO 270500Z 2706/2806 04008KT 8000 SCT023 BKN100 
     BECMG 2716/2718 06008KT 6000 FEW030 SCT100
       
VTCC 270630Z 17009KT 120V220 9999 BKN040 34/16 Q1015 A2998 NOSIG
TAF VTCC 270500Z 2706/2812 22005KT 8000 SCT040 
     TEMPO 2708/2715 VRB15G30KT 4000 TSRA FEW025CB BKN030
       
VTCT 270600Z 06005KT 9999 FEW029 SCT040 28/21 Q1017 A3003
TAF VTCT 270500Z 2706/2812 22005KT 8000 SCT040 
     TEMPO 2708/2715 VRB15G30KT 4000 TSRA FEW025CB BKN030
       
VTSE 270600Z VRB06KT 4000 RA SCT020 BKN024 OVC080 24/23 Q1015 RETS
TAF VTSE 270500Z 2706/2806 05013KT 6000 -RA SCT015 BKN100 
     TEMPO 2706/2712 VRB17G27KT 1000 +TSRA FEW016CB SCT018 OVC100 
     BECMG 2714/2716 VRB02KT 8000 SCT020 SCT100 
     TEMPO 2721/2803 VRB15KT 3000 TSRA FEW016CB SCT018 BKN100 
     BECMG 2801/2803 05014KT 9999
       
VTSS 270630Z 09012KT 9999 SCT020 SCT100 33/24 Q1011 NOSIG
TAF VTSS 270500Z 2706/2806 07013KT 9999 SCT020 
     TEMPO 2707/2713 VRB17KT 7000 -TSRA FEW016CB SCT018 BKN100 
     BECMG 2714/2716 VRB02KT 
     BECMG 2802/2804 08013KT
       
VTPH 270500Z 19003KT 120V270 8000 -RA SCT012 BKN023 25/25 Q1016
TAF VTPH 270500Z 2706/2806 02005KT 8000 SCT020 SCT100 
     TEMPO 2706/2710 6000 -RA SCT018 BKN028 
     BECMG 2710/2712 32005KT 7000 FEW028 
     BECMG 2801/2803 05008KT 9000 SCT028
       
VTUK 270600Z 36005KT 310V070 9999 SCT040 BKN090 26/17 Q1018 NOSIG
TAF VTUK 270500Z 2706/2806 06007KT 9999 FEW040 
     TEMPO 2708/2713 08008KT 8000 -TSRA FEW030CB 
     BECMG 2713/2715 05006KT 9999 FEW040
       
VTSG 270600Z 08006G20KT 020V190 9000 TS BKN023 32/23 Q1013 A2992 TS OVER AD
TAF VTSG 270500Z 2706/2806 04008KT 9000 FEW018 
     TEMPO 2706/2710 VRB10G25KT 3000 TSRA FEW016CB SCT020 BKN100
       
VTCL 270600Z 11009KT 080V160 9999 SCT025 31/22 Q1015 A2999
TAF VTCL 270500Z 2706/2806 22005KT 7000 SCT040 
     TEMPO 2708/2715 VRB15G30KT 4000 TSRA FEW025CB BKN030
       
VTUL 270600Z 14006KT 090V180 9999 SCT033 BKN040 27/17 Q1018
TAF VTUL 270500Z 2706/2806 10004KT 9999 FEW040 
     TEMPO 2708/2713 08006KT 8000 -RA FEW030 
     BECMG 2722/2800 00000KT 9999 FEW040
       
VTCH 270600Z VRB03KT 5000 HZ FEW028 36/12 Q1012 A2989 INFO: G
TAF VTCH 270500Z 2706/2806 22005KT 6000 SCT040 
     TEMPO 2708/2715 VRB15G30KT 4000 TSRA FEW025CB BKN030
       
VTPM 270600Z 02007G19KT 330V100 9999 SCT045 33/19 Q1014 A2994 RMK/RWY 27 INFO G
TAF VTPM 270500Z 2706/2806 18005KT 7000 SCT040 
     TEMPO 2708/2715 VRB15G30KT 4000 TSRA FEW025CB BKN030
       
VTUW 270600Z 12006KT 9999 FEW030 27/18 Q1017
TAF VTUW 270500Z 2706/2806 09006KT CAVOK 
     BECMG 2716/2718 00000KT 9000 FEW040 
     BECMG 2720/2800 11002KT 9999 FEW040
       
VTUQ 270600Z 02005KT 280V080 9999 SCT024 26/19 Q1018
TAF VTUQ 270500Z 2706/2806 05008KT 9999 SCT023 BKN100 
     TEMPO 2710/2713 VRB15KT 5000 TSRA FEW018CB BKN020 QVC100
       
VTSF 270600Z 10009KT 060V140 9999 FEW016CB SCT018 33/25 Q1013
TAF VTSF 270500Z 2706/2806 09010KT 9999 SCT020 
     TEMPO 2706/2712 VRB15KT 7000 -TSRA FEW016CB SCT018 BKN100 
     BECMG 2713/2715 VRB02KT 8000 
     TEMPO 2720/2802 VRB10KT 7000 -RA SCT015 BKN100 
     BECMG 2803/2805 07012KT 9999
       
VTCN 270600Z VRB06KT 120V110 9999 SCT025 BKN100 33/17 Q1015 A2999
TAF VTCN 270500Z 2706/2806 22005KT 7000 SCT040 
     TEMPO 2708/2715 VRB15G30KT 4000 TSRA FEW025CB BKN030
       
VTSC 270600Z 09010KT 050V120 9999 SCT022 BKN100 31/24 Q1012
TAF VTSC 270500Z 2706/2806 09010KT 9999 SCT020 SCT100 
     PROB30 
     TEMPO 2706/2712 VRB13KT 7000 -RA SCT015 BKN100 
     BECMG 2716/2718 18005KT 8000 
     BECMG 2802/2804 09010KT 9999
       
TAF VTSK 270500Z 2706/2806 09009KT 9999 SCT020 
     PROB30 
     TEMPO 2706/2712 VRB14KT 7000 -RA SCT015 BKN100 
     BECMG 2718/2720 17005KT 
     BECMG 2802/2804 09008KT
       
TAF VTPB 270500Z 2706/2806 18005KT 8000 SCT040 
     TEMPO 2708/2715 VRB15G30KT 4000 TSRA FEW025CB BKN030
       
VTPP 270600Z 05006KT 9999 FEW025 30/20 Q1016
TAF VTPP 270500Z 2706/2806 18005KT 8000 SCT040 
     TEMPO 2708/2715 VRB15G30KT 4000 TSRA FEW025CB BKN030
       
VTCP 270600Z AUTO VRB02KT 9999 // ////// 31/20 Q1016
TAF VTCP 270500Z 2706/2806 22005KT 6000 SCT040 
     TEMPO 2708/2715 VRB15G30KT 4000 TSRA FEW025CB BKN030
       
VTSP 270630Z 07008KT 8000 SCT018 SCT100 32/23 Q1011 NOSIG
TAF VTSP 270500Z 2706/2812 08008KT 8000 FEW018 SCT020 
     TEMPO 2710/2714 VRB10G20KT 3000 TSRA FEW016CB SCT020 BKN100
       
TAF VTSR 270500Z 2706/2806 10008KT 9000 FEW020 
     TEMPO 2708/2712 VRB10G20KT 3000 TSRA FEW016CB SCT020 BKN100
       
VTUV 270500Z 06010KT 9999 BKN025 26/16 Q1018 A3007 INFO F RWY 36
TAF VTUV 270500Z 2706/2806 04008KT 9999 SCT025 
     BECMG 2716/2718 06008KT 8000 FEW030 SCT100
       
VTUI 270600Z 13006KT 100V180 9999 FEW040 26/18 Q1017
TAF VTUI 270500Z 2706/2806 11004KT 9999 FEW040 
     BECMG 2716/2718 10007KT 9000 FEW040 
     BECMG 2720/2800 11006KT 9999 FEW040
       
VTSM 270630Z 09010KT 9999 FEW020 31/26 Q1014
TAF VTSM 270500Z 2706/2806 14014KT 9999 FEW020 
     TEMPO 2706/2712 VRB20KT 7000 -TSRA FEW016CB SCT018 BKN100
       
VTSH 270600Z 06006KT 9999 FEW020CB SCT100 32/24 Q1012 NOSIG
TAF VTSH 270500Z 2706/2806 06010KT 9999 SCT020 
     TEMPO 2706/2712 VRB15KT 7000 -TSRA FEW016CB SCT018 BKN100 
     BECMG 2713/2715 VRB02KT 8000 
     BECMG 2801/2803 07010KT 9999
       
VTPO 270600Z 13005KT 9999 SCT022 30/21 Q1015
TAF VTPO 270500Z 2706/2806 18005KT 6000 SCT040 
     TEMPO 2708/2715 VRB15G30KT 4000 TSRA FEW025CB BKN030
       
VTSB 270600Z 13007G17KT 6000 -TSRA FEW018CB BKN020 27/25 Q1013
TAF VTSB 270500Z 2706/2806 06014KT 9999 SCT020 
     TEMPO 2706/2712 VRB17KT 7000 -TSRA FEW016CB SCT018 BKN100 
     BECMG 2721/2723 34004KT 5000 BR 
     BECMG 2802/2804 07013KT 9999
       
TAF VTPT 270500Z 2706/2806 18005KT 6000 SCT040 
     TEMPO 2708/2715 VRB15G30KT 4000 TSRA FEW025CB BKN030
       
VTST 270600Z 09012KT 8000 -TSRA FEW018CB SCT025 27/24 Q1011
TAF VTST 270500Z 2706/2806 08008KT 9000 FEW018 
     TEMPO 2706/2710 VRB10G25KT 3000 TSRA FEW016CB SCT020 BKN100
       
VTBU 270630Z 15003KT 7000 FEW020CB SCT035 BKN100 27/22 Q1014 NOSIG
TAF VTBU 270500Z 2706/2806 17006KT 6000 FEW020 SCT040 BKN120 
     TEMPO 2706/2710 VRB08KT 5000 -RA FEW018CB SCT035 BKN100 
     BECMG 2710/2712 14004KT
       
VTUU 270600Z 36007KT 330V030 9999 FEW030 BKN100 26/19 Q1016 NOSIG
TAF VTUU 270500Z 2706/2806 03008KT 9999 FEW025 BKN100 
     BECMG 2712/2714 06008KT 9000 FEW030 SCT100
       
VTUD 270600Z 08007KT 030V130 9999 FEW043 BKN063 27/18 Q1018
TAF VTUD 270500Z 2706/2806 08006KT 9999 FEW040 
     TEMPO 2708/2713 06006KT 8000 -RA FEW030 
     BECMG 2713/2715 07006KT 9999 FEW040